Aviation Digital Data Service (ADDS)

Output produced by METARs form (2341 UTC 20 January 2019)
found at http://www.aviationweather.gov/metar/data/
 
METAR text: KGEG 202253Z 36008KT 8SM -RASN SCT012 BKN060 OVC075 02/00 A2971 RMK AO2 SNE18B46 SLP077 P0001 T00220000
Conditions at: KGEG (SPOKANE/METRO , WA, US) observed 2253 UTC 20 January 2019
Temperature: 2.2°C (36°F)
Dewpoint: 0.0°C (32°F) [RH = 85%]
Pressure (altimeter): 29.71 inches Hg (1006.2 mb)
[Sea-level pressure: 1007.7 mb]
Winds: from the N (360 degrees) at 9 MPH (8 knots; 4.1 m/s)
Visibility: 8 miles (13 km)
Ceiling: 6000 feet AGL
Clouds: scattered clouds at 1200 feet AGL
broken clouds at 6000 feet AGL
overcast cloud deck at 7500 feet AGL
Weather: -RA -SN  (light rain, light snow)

METAR text: KGEG 202220Z 36009KT 6SM -RA BR FEW007 BKN012 OVC020 02/00 A2972 RMK AO2 SNE18 P0001 T00220000
Conditions at: KGEG (SPOKANE/METRO , WA, US) observed 2220 UTC 20 January 2019
Temperature: 2.2°C (36°F)
Dewpoint: 0.0°C (32°F) [RH = 85%]
Pressure (altimeter): 29.72 inches Hg (1006.5 mb)
Winds: from the N (360 degrees) at 10 MPH (9 knots; 4.6 m/s)
Visibility: 6 miles (10 km)
Ceiling: 1200 feet AGL
Clouds: few clouds at 700 feet AGL
broken clouds at 1200 feet AGL
overcast cloud deck at 2000 feet AGL
Weather: -RA BR  (light rain, mist)

METAR text: KGEG 202153Z 02012KT 6SM -RASN BR SCT007 BKN016 OVC034 02/00 A2972 RMK AO2 RAB38 SLP078 P0001 T00170000
Conditions at: KGEG (SPOKANE/METRO , WA, US) observed 2153 UTC 20 January 2019
Temperature: 1.7°C (35°F)
Dewpoint: 0.0°C (32°F) [RH = 88%]
Pressure (altimeter): 29.72 inches Hg (1006.5 mb)
[Sea-level pressure: 1007.8 mb]
Winds: from the NNE (20 degrees) at 14 MPH (12 knots; 6.2 m/s)
Visibility: 6 miles (10 km)
Ceiling: 1600 feet AGL
Clouds: scattered clouds at 700 feet AGL
broken clouds at 1600 feet AGL
overcast cloud deck at 3400 feet AGL
Weather: -RA -SN BR  (light rain, light snow, mist)

METAR text: KGEG 202053Z 36008KT 2SM -SN BR FEW003 BKN005 OVC007 02/00 A2974 RMK AO2 SFC VIS 3 SLP086 VIS S-SW 2 P0002 60003 T00170000 56030
Conditions at: KGEG (SPOKANE/METRO , WA, US) observed 2053 UTC 20 January 2019
Temperature: 1.7°C (35°F)
Dewpoint: 0.0°C (32°F) [RH = 88%]
Pressure (altimeter): 29.74 inches Hg (1007.2 mb)
[Sea-level pressure: 1008.6 mb]
Winds: from the N (360 degrees) at 9 MPH (8 knots; 4.1 m/s)
Visibility: 2.00 miles (3.22 km)
Ceiling: 500 feet AGL
Clouds: few clouds at 300 feet AGL
broken clouds at 500 feet AGL
overcast cloud deck at 700 feet AGL
Weather: -SN BR  (light snow, mist)

METAR text: KGEG 202040Z 01007KT 1SM -SN BR FEW003 BKN005 OVC010 01/00 A2974 RMK AO2 SFC VIS 1 1/2 VIS W-N 2 P0002 T00110000
Conditions at: KGEG (SPOKANE/METRO , WA, US) observed 2040 UTC 20 January 2019
Temperature: 1.1°C (34°F)
Dewpoint: 0.0°C (32°F) [RH = 92%]
Pressure (altimeter): 29.74 inches Hg (1007.2 mb)
Winds: from the N (10 degrees) at 8 MPH (7 knots; 3.6 m/s)
Visibility: 1.00 miles (1.61 km)
Ceiling: 500 feet AGL
Clouds: few clouds at 300 feet AGL
broken clouds at 500 feet AGL
overcast cloud deck at 1000 feet AGL
Weather: -SN BR  (light snow, mist)

METAR text: KGEG 202024Z 02005KT 3/4SM R03/P6000FT -SN BR SCT003 OVC005 01/M01 A2975 RMK AO2 TWR VIS 1 VIS W-NW 1 P0002 T00061006
Conditions at: KGEG (SPOKANE/METRO , WA, US) observed 2024 UTC 20 January 2019
Temperature: 0.6°C (33°F)
Dewpoint: -0.6°C (31°F) [RH = 92%]
Pressure (altimeter): 29.75 inches Hg (1007.5 mb)
Winds: from the NNE (20 degrees) at 6 MPH (5 knots; 2.6 m/s)
Visibility: 0.75 miles (1.21 km)
Ceiling: 500 feet AGL
Clouds: scattered clouds at 300 feet AGL
overcast cloud deck at 500 feet AGL
Weather: -SN BR  (light snow, mist)

METAR text: KGEG 201953Z 02003KT 1SM R03/P6000FT -SN BR SCT003 OVC005 01/00 A2977 RMK AO2 SLP098 VIS SE-SW 3/4 P0001 T00060000
Conditions at: KGEG (SPOKANE/METRO , WA, US) observed 1953 UTC 20 January 2019
Temperature: 0.6°C (33°F)
Dewpoint: 0.0°C (32°F) [RH = 96%]
Pressure (altimeter): 29.77 inches Hg (1008.2 mb)
[Sea-level pressure: 1009.8 mb]
Winds: from the NNE (20 degrees) at 3 MPH (3 knots; 1.5 m/s)
Visibility: 1.00 miles (1.61 km)
Ceiling: 500 feet AGL
Clouds: scattered clouds at 300 feet AGL
overcast cloud deck at 500 feet AGL
Weather: -SN BR  (light snow, mist)

METAR text: KGEG 201923Z 05006KT 1SM -SN BR SCT003 OVC005 01/00 A2978 RMK AO2 SFC VIS 1 1/2 VIS W-NW 2 P0000 T00060000
Conditions at: KGEG (SPOKANE/METRO , WA, US) observed 1923 UTC 20 January 2019
Temperature: 0.6°C (33°F)
Dewpoint: 0.0°C (32°F) [RH = 96%]
Pressure (altimeter): 29.78 inches Hg (1008.5 mb)
Winds: from the NE (50 degrees) at 7 MPH (6 knots; 3.1 m/s)
Visibility: 1.00 miles (1.61 km)
Ceiling: 500 feet AGL
Clouds: scattered clouds at 300 feet AGL
overcast cloud deck at 500 feet AGL
Weather: -SN BR  (light snow, mist)

METAR text: KGEG 201909Z 04008KT 2SM -SN BR SCT003 BKN005 OVC007 01/00 A2979 RMK AO2 SFC VIS 3 VIS SE-SW 2 P0000 T00060000
Conditions at: KGEG (SPOKANE/METRO , WA, US) observed 1909 UTC 20 January 2019
Temperature: 0.6°C (33°F)
Dewpoint: 0.0°C (32°F) [RH = 96%]
Pressure (altimeter): 29.79 inches Hg (1008.9 mb)
Winds: from the NE (40 degrees) at 9 MPH (8 knots; 4.1 m/s)
Visibility: 2.00 miles (3.22 km)
Ceiling: 500 feet AGL
Clouds: scattered clouds at 300 feet AGL
broken clouds at 500 feet AGL
overcast cloud deck at 700 feet AGL
Weather: -SN BR  (light snow, mist)

METAR text: KGEG 201853Z 05009KT 1SM -SN BR SCT002 BKN005 OVC007 01/00 A2980 RMK AO2 SFC VIS 4 SNB24E29B45 SLP107 P0000 T00060000
Conditions at: KGEG (SPOKANE/METRO , WA, US) observed 1853 UTC 20 January 2019
Temperature: 0.6°C (33°F)
Dewpoint: 0.0°C (32°F) [RH = 96%]
Pressure (altimeter): 29.80 inches Hg (1009.2 mb)
[Sea-level pressure: 1010.7 mb]
Winds: from the NE (50 degrees) at 10 MPH (9 knots; 4.6 m/s)
Visibility: 1.00 miles (1.61 km)
Ceiling: 500 feet AGL
Clouds: scattered clouds at 200 feet AGL
broken clouds at 500 feet AGL
overcast cloud deck at 700 feet AGL
Weather: -SN BR  (light snow, mist)

METAR text: KGEG 201825Z 05010KT 1SM -SN BR BKN002 OVC005 01/00 A2982 RMK AO2 SFC VIS 2 1/2 SNB24 P0000 T00060000
Conditions at: KGEG (SPOKANE/METRO , WA, US) observed 1825 UTC 20 January 2019
Temperature: 0.6°C (33°F)
Dewpoint: 0.0°C (32°F) [RH = 96%]
Pressure (altimeter): 29.82 inches Hg (1009.9 mb)
Winds: from the NE (50 degrees) at 12 MPH (10 knots; 5.1 m/s)
Visibility: 1.00 miles (1.61 km)
Ceiling: 200 feet AGL
Clouds: broken clouds at 200 feet AGL
overcast cloud deck at 500 feet AGL
Weather: -SN BR  (light snow, mist)

METAR text: KGEG 201753Z 05007KT 1/8SM R03/P6000FT BR OVC002 01/00 A2983 RMK AO2 SFC VIS 3/4 SLP118 VIS W-N 1 T00060000 10011 20000 58026
Conditions at: KGEG (SPOKANE/METRO , WA, US) observed 1753 UTC 20 January 2019
Temperature: 0.6°C (33°F)
Dewpoint: 0.0°C (32°F) [RH = 96%]
Pressure (altimeter): 29.83 inches Hg (1010.2 mb)
[Sea-level pressure: 1011.8 mb]
Winds: from the NE (50 degrees) at 8 MPH (7 knots; 3.6 m/s)
Visibility: 0.13 miles (0.21 km)
Ceiling: 200 feet AGL
Clouds: overcast cloud deck at 200 feet AGL
Weather: BR  (mist)

METAR text: KGEG 201653Z 05005KT 1/16SM R03/1600FT FG VV002 01/00 A2987 RMK AO2 SFC VIS 1/8 SLP129 T00060000
Conditions at: KGEG (SPOKANE/METRO , WA, US) observed 1653 UTC 20 January 2019
Temperature: 0.6°C (33°F)
Dewpoint: 0.0°C (32°F) [RH = 96%]
Pressure (altimeter): 29.87 inches Hg (1011.6 mb)
[Sea-level pressure: 1012.9 mb]
Winds: from the NE (50 degrees) at 6 MPH (5 knots; 2.6 m/s)
Visibility: 0.06 miles (0.10 km)
Ceiling: indefinite ceiling with vertical visibility of 200 feet AGL
Clouds: obscured sky
Weather: FG  (fog)

METAR text: KGEG 201553Z 04008KT 1/16SM R03/2000FT FG VV002 00/M01 A2989 RMK AO2 SFC VIS 1/8 SLP136 T00001006
Conditions at: KGEG (SPOKANE/METRO , WA, US) observed 1553 UTC 20 January 2019
Temperature: 0.0°C (32°F)
Dewpoint: -0.6°C (31°F) [RH = 96%]
Pressure (altimeter): 29.89 inches Hg (1012.3 mb)
[Sea-level pressure: 1013.6 mb]
Winds: from the NE (40 degrees) at 9 MPH (8 knots; 4.1 m/s)
Visibility: 0.06 miles (0.10 km)
Ceiling: indefinite ceiling with vertical visibility of 200 feet AGL
Clouds: obscured sky
Weather: FG  (fog)

METAR text: KGEG 201453Z 05007KT 1/16SM R03/1200V1400FT FG VV001 01/M01 A2992 RMK AO2 SLP146 T00061006 58035
Conditions at: KGEG (SPOKANE/METRO , WA, US) observed 1453 UTC 20 January 2019
Temperature: 0.6°C (33°F)
Dewpoint: -0.6°C (31°F) [RH = 92%]
Pressure (altimeter): 29.92 inches Hg (1013.3 mb)
[Sea-level pressure: 1014.6 mb]
Winds: from the NE (50 degrees) at 8 MPH (7 knots; 3.6 m/s)
Visibility: 0.06 miles (0.10 km)
Ceiling: indefinite ceiling with vertical visibility of 100 feet AGL
Clouds: obscured sky
Weather: FG  (fog)

METAR text: KGEG 201433Z 05007KT 1/16SM R03/1000FT FG VV001 01/M01 A2993 RMK AO2 TWR VIS 1/4 T00061006
Conditions at: KGEG (SPOKANE/METRO , WA, US) observed 1433 UTC 20 January 2019
Temperature: 0.6°C (33°F)
Dewpoint: -0.6°C (31°F) [RH = 92%]
Pressure (altimeter): 29.93 inches Hg (1013.6 mb)
Winds: from the NE (50 degrees) at 8 MPH (7 knots; 3.6 m/s)
Visibility: 0.06 miles (0.10 km)
Ceiling: indefinite ceiling with vertical visibility of 100 feet AGL
Clouds: obscured sky
Weather: FG  (fog)

METAR text: KGEG 201353Z 06006KT 1/4SM R03/1600FT FG VV002 01/M01 A2995 RMK AO2 SLP159 T00061006
Conditions at: KGEG (SPOKANE/METRO , WA, US) observed 1353 UTC 20 January 2019
Temperature: 0.6°C (33°F)
Dewpoint: -0.6°C (31°F) [RH = 92%]
Pressure (altimeter): 29.95 inches Hg (1014.3 mb)
[Sea-level pressure: 1015.9 mb]
Winds: from the ENE (60 degrees) at 7 MPH (6 knots; 3.1 m/s)
Visibility: 0.25 miles (0.40 km)
Ceiling: indefinite ceiling with vertical visibility of 200 feet AGL
Clouds: obscured sky
Weather: FG  (fog)

METAR text: KGEG 201320Z 05007KT 1/4SM R03/1400FT FG VV002 01/M01 A2998 RMK AO2 TWR VIS 1/2 T00061006
Conditions at: KGEG (SPOKANE/METRO , WA, US) observed 1320 UTC 20 January 2019
Temperature: 0.6°C (33°F)
Dewpoint: -0.6°C (31°F) [RH = 92%]
Pressure (altimeter): 29.98 inches Hg (1015.3 mb)
Winds: from the NE (50 degrees) at 8 MPH (7 knots; 3.6 m/s)
Visibility: 0.25 miles (0.40 km)
Ceiling: indefinite ceiling with vertical visibility of 200 feet AGL
Clouds: obscured sky
Weather: FG  (fog)

METAR text: KGEG 201253Z 07004KT 1/2SM R03/1600FT FG VV002 01/00 A3000 RMK AO2 SLP174 T00060000
Conditions at: KGEG (SPOKANE/METRO , WA, US) observed 1253 UTC 20 January 2019
Temperature: 0.6°C (33°F)
Dewpoint: 0.0°C (32°F) [RH = 96%]
Pressure (altimeter): 30.00 inches Hg (1016.0 mb)
[Sea-level pressure: 1017.4 mb]
Winds: from the ENE (70 degrees) at 5 MPH (4 knots; 2.1 m/s)
Visibility: 0.50 miles (0.80 km)
Ceiling: indefinite ceiling with vertical visibility of 200 feet AGL
Clouds: obscured sky
Weather: FG  (fog)

METAR text: KGEG 201207Z 05005KT 1/2SM R03/2200FT FG VV003 01/01 A3002 RMK AO2 T00110006
Conditions at: KGEG (SPOKANE/METRO , WA, US) observed 1207 UTC 20 January 2019
Temperature: 1.1°C (34°F)
Dewpoint: 0.6°C (33°F) [RH = 96%]
Pressure (altimeter): 30.02 inches Hg (1016.7 mb)
Winds: from the NE (50 degrees) at 6 MPH (5 knots; 2.6 m/s)
Visibility: 0.50 miles (0.80 km)
Ceiling: indefinite ceiling with vertical visibility of 300 feet AGL
Clouds: obscured sky
Weather: FG  (fog)

METAR text: KGEG 201153Z 05005KT 1/2SM R21/1800V2600FT FG VV003 01/01 A3003 RMK AO2 SLP183 VIS N-NE 3/4 70005 T00110006 10022 20011 58019
Conditions at: KGEG (SPOKANE/METRO , WA, US) observed 1153 UTC 20 January 2019
Temperature: 1.1°C (34°F)
Dewpoint: 0.6°C (33°F) [RH = 96%]
Pressure (altimeter): 30.03 inches Hg (1017.0 mb)
[Sea-level pressure: 1018.3 mb]
Winds: from the NE (50 degrees) at 6 MPH (5 knots; 2.6 m/s)
Visibility: 0.50 miles (0.80 km)
Ceiling: indefinite ceiling with vertical visibility of 300 feet AGL
Clouds: obscured sky
Weather: FG  (fog)

METAR text: KGEG 201108Z 06004KT 1/2SM R21/2800V4000FT FG VV002 01/00 A3005 RMK AO2 T00110000
Conditions at: KGEG (SPOKANE/METRO , WA, US) observed 1108 UTC 20 January 2019
Temperature: 1.1°C (34°F)
Dewpoint: 0.0°C (32°F) [RH = 92%]
Pressure (altimeter): 30.05 inches Hg (1017.7 mb)
Winds: from the ENE (60 degrees) at 5 MPH (4 knots; 2.1 m/s)
Visibility: 0.50 miles (0.80 km)
Ceiling: indefinite ceiling with vertical visibility of 200 feet AGL
Clouds: obscured sky
Weather: FG  (fog)

METAR text: KGEG 201053Z 05003KT 3/4SM R21/1800V3000FT BR BCFG FEW001 BKN003 OVC005 01/00 A3005 RMK AO2 TWR VIS 1 SLP191 VIS S-SW 1/4 T00110000
Conditions at: KGEG (SPOKANE/METRO , WA, US) observed 1053 UTC 20 January 2019
Temperature: 1.1°C (34°F)
Dewpoint: 0.0°C (32°F) [RH = 92%]
Pressure (altimeter): 30.05 inches Hg (1017.7 mb)
[Sea-level pressure: 1019.1 mb]
Winds: from the NE (50 degrees) at 3 MPH (3 knots; 1.5 m/s)
Visibility: 0.75 miles (1.21 km)
Ceiling: 300 feet AGL
Clouds: few clouds at 100 feet AGL
broken clouds at 300 feet AGL
overcast cloud deck at 500 feet AGL
Weather: BR BCFG  (mist, patches of fog)

METAR text: KGEG 200953Z 06004KT 1SM R21/2400VP6000FT BR BCFG BKN003 OVC140 02/01 A3008 RMK AO2 SFC VIS 2 SLP199 VIS N-NE 1 1/4 T00170006
Conditions at: KGEG (SPOKANE/METRO , WA, US) observed 0953 UTC 20 January 2019
Temperature: 1.7°C (35°F)
Dewpoint: 0.6°C (33°F) [RH = 92%]
Pressure (altimeter): 30.08 inches Hg (1018.7 mb)
[Sea-level pressure: 1019.9 mb]
Winds: from the ENE (60 degrees) at 5 MPH (4 knots; 2.1 m/s)
Visibility: 1.00 miles (1.61 km)
Ceiling: 300 feet AGL
Clouds: broken clouds at 300 feet AGL
overcast cloud deck at 14000 feet AGL
Weather: BR BCFG  (mist, patches of fog)

METAR text: KGEG 200930Z 00000KT 1SM R21/P6000FT BR BKN003 OVC140 01/00 A3008 RMK AO2 SFC VIS 6 T00110000
Conditions at: KGEG (SPOKANE/METRO , WA, US) observed 0930 UTC 20 January 2019
Temperature: 1.1°C (34°F)
Dewpoint: 0.0°C (32°F) [RH = 92%]
Pressure (altimeter): 30.08 inches Hg (1018.7 mb)
Winds: calm
Visibility: 1.00 miles (1.61 km)
Ceiling: 300 feet AGL
Clouds: broken clouds at 300 feet AGL
overcast cloud deck at 14000 feet AGL
Weather: BR  (mist)

METAR text: KGEG 200853Z 19005KT 9SM FEW003 BKN160 BKN250 02/01 A3008 RMK AO2 SLP202 T00170006 58011
Conditions at: KGEG (SPOKANE/METRO , WA, US) observed 0853 UTC 20 January 2019
Temperature: 1.7°C (35°F)
Dewpoint: 0.6°C (33°F) [RH = 92%]
Pressure (altimeter): 30.08 inches Hg (1018.7 mb)
[Sea-level pressure: 1020.2 mb]
Winds: from the S (190 degrees) at 6 MPH (5 knots; 2.6 m/s)
Visibility: 9 miles (14 km)
Ceiling: 16000 feet AGL
Clouds: few clouds at 300 feet AGL
broken clouds at 16000 feet AGL
broken clouds at 25000 feet AGL
Weather: no significant weather observed at this time

METAR text: KGEG 200753Z 14004KT 7SM FEW004 OVC170 02/01 A3011 RMK AO2 SLP211 T00170006 400500006
Conditions at: KGEG (SPOKANE/METRO , WA, US) observed 0753 UTC 20 January 2019
Temperature: 1.7°C (35°F)
Dewpoint: 0.6°C (33°F) [RH = 92%]
Pressure (altimeter): 30.11 inches Hg (1019.7 mb)
[Sea-level pressure: 1021.1 mb]
Winds: from the SE (140 degrees) at 5 MPH (4 knots; 2.1 m/s)
Visibility: 7 miles (11 km)
Ceiling: 17000 feet AGL
Clouds: few clouds at 400 feet AGL
overcast cloud deck at 17000 feet AGL
Weather: no significant weather observed at this time

METAR text: KGEG 200725Z 14003KT 7SM FEW005 SCT011 BKN180 02/01 A3012 RMK AO2 T00170006
Conditions at: KGEG (SPOKANE/METRO , WA, US) observed 0725 UTC 20 January 2019
Temperature: 1.7°C (35°F)
Dewpoint: 0.6°C (33°F) [RH = 92%]
Pressure (altimeter): 30.12 inches Hg (1020.1 mb)
Winds: from the SE (140 degrees) at 3 MPH (3 knots; 1.5 m/s)
Visibility: 7 miles (11 km)
Ceiling: 18000 feet AGL
Clouds: few clouds at 500 feet AGL
scattered clouds at 1100 feet AGL
broken clouds at 18000 feet AGL
Weather: no significant weather observed at this time

METAR text: KGEG 200653Z 15004KT 5SM BR FEW003 BKN009 OVC170 02/01 A3012 RMK AO2 SLP215 T00170006
Conditions at: KGEG (SPOKANE/METRO , WA, US) observed 0653 UTC 20 January 2019
Temperature: 1.7°C (35°F)
Dewpoint: 0.6°C (33°F) [RH = 92%]
Pressure (altimeter): 30.12 inches Hg (1020.1 mb)
[Sea-level pressure: 1021.5 mb]
Winds: from the SSE (150 degrees) at 5 MPH (4 knots; 2.1 m/s)
Visibility: 5 miles ( 8 km)
Ceiling: 900 feet AGL
Clouds: few clouds at 300 feet AGL
broken clouds at 900 feet AGL
overcast cloud deck at 17000 feet AGL
Weather: BR  (mist)

METAR text: KGEG 200635Z 11003KT 5SM BR BKN003 OVC009 02/01 A3012 RMK AO2 T00170006
Conditions at: KGEG (SPOKANE/METRO , WA, US) observed 0635 UTC 20 January 2019
Temperature: 1.7°C (35°F)
Dewpoint: 0.6°C (33°F) [RH = 92%]
Pressure (altimeter): 30.12 inches Hg (1020.1 mb)
Winds: from the ESE (110 degrees) at 3 MPH (3 knots; 1.5 m/s)
Visibility: 5 miles ( 8 km)
Ceiling: 300 feet AGL
Clouds: broken clouds at 300 feet AGL
overcast cloud deck at 900 feet AGL
Weather: BR  (mist)

METAR text: KGEG 200553Z 17003KT 1/2SM R21/P6000FT BR BKN002 OVC009 02/01 A3012 RMK AO2 SFC VIS 6 SLP213 T00220011 10039 20017 50001
Conditions at: KGEG (SPOKANE/METRO , WA, US) observed 0553 UTC 20 January 2019
Temperature: 2.2°C (36°F)
Dewpoint: 1.1°C (34°F) [RH = 92%]
Pressure (altimeter): 30.12 inches Hg (1020.1 mb)
[Sea-level pressure: 1021.3 mb]
Winds: from the S (170 degrees) at 3 MPH (3 knots; 1.5 m/s)
Visibility: 0.50 miles (0.80 km)
Ceiling: 200 feet AGL
Clouds: broken clouds at 200 feet AGL
overcast cloud deck at 900 feet AGL
Weather: BR  (mist)

METAR text: KGEG 200544Z 14003KT 1/2SM R21/P6000FT BR SCT002 OVC009 02/01 A3012 RMK AO2 SFC VIS 6 T00170006
Conditions at: KGEG (SPOKANE/METRO , WA, US) observed 0544 UTC 20 January 2019
Temperature: 1.7°C (35°F)
Dewpoint: 0.6°C (33°F) [RH = 92%]
Pressure (altimeter): 30.12 inches Hg (1020.1 mb)
Winds: from the SE (140 degrees) at 3 MPH (3 knots; 1.5 m/s)
Visibility: 0.50 miles (0.80 km)
Ceiling: 900 feet AGL
Clouds: scattered clouds at 200 feet AGL
overcast cloud deck at 900 feet AGL
Weather: BR  (mist)

METAR text: KGEG 200542Z 14004KT 1 1/2SM BR SCT002 OVC009 02/01 A3012 RMK AO2 SFC VIS 6 T00170006
Conditions at: KGEG (SPOKANE/METRO , WA, US) observed 0542 UTC 20 January 2019
Temperature: 1.7°C (35°F)
Dewpoint: 0.6°C (33°F) [RH = 92%]
Pressure (altimeter): 30.12 inches Hg (1020.1 mb)
Winds: from the SE (140 degrees) at 5 MPH (4 knots; 2.1 m/s)
Visibility: 1.50 miles (2.41 km)
Ceiling: 900 feet AGL
Clouds: scattered clouds at 200 feet AGL
overcast cloud deck at 900 feet AGL
Weather: BR  (mist)

METAR text: KGEG 200453Z 20006KT 10SM SCT009 BKN012 OVC170 02/01 A3012 RMK AO2 SLP214 T00220006
Conditions at: KGEG (SPOKANE/METRO , WA, US) observed 0453 UTC 20 January 2019
Temperature: 2.2°C (36°F)
Dewpoint: 0.6°C (33°F) [RH = 89%]
Pressure (altimeter): 30.12 inches Hg (1020.1 mb)
[Sea-level pressure: 1021.4 mb]
Winds: from the SSW (200 degrees) at 7 MPH (6 knots; 3.1 m/s)
Visibility: 10 or more miles (16+ km)
Ceiling: 1200 feet AGL
Clouds: scattered clouds at 900 feet AGL
broken clouds at 1200 feet AGL
overcast cloud deck at 17000 feet AGL
Weather: no significant weather observed at this time

METAR text: KGEG 200353Z 20005KT 10SM SCT009 BKN012 OVC016 03/01 A3012 RMK AO2 SLP214 T00280011
Conditions at: KGEG (SPOKANE/METRO , WA, US) observed 0353 UTC 20 January 2019
Temperature: 2.8°C (37°F)
Dewpoint: 1.1°C (34°F) [RH = 89%]
Pressure (altimeter): 30.12 inches Hg (1020.1 mb)
[Sea-level pressure: 1021.4 mb]
Winds: from the SSW (200 degrees) at 6 MPH (5 knots; 2.6 m/s)
Visibility: 10 or more miles (16+ km)
Ceiling: 1200 feet AGL
Clouds: scattered clouds at 900 feet AGL
broken clouds at 1200 feet AGL
overcast cloud deck at 1600 feet AGL
Weather: no significant weather observed at this time

METAR text: KGEG 200253Z 22004KT 10SM SCT009 OVC012 03/01 A3012 RMK AO2 SLP214 T00280011 50001
Conditions at: KGEG (SPOKANE/METRO , WA, US) observed 0253 UTC 20 January 2019
Temperature: 2.8°C (37°F)
Dewpoint: 1.1°C (34°F) [RH = 89%]
Pressure (altimeter): 30.12 inches Hg (1020.1 mb)
[Sea-level pressure: 1021.4 mb]
Winds: from the SW (220 degrees) at 5 MPH (4 knots; 2.1 m/s)
Visibility: 10 or more miles (16+ km)
Ceiling: 1200 feet AGL
Clouds: scattered clouds at 900 feet AGL
overcast cloud deck at 1200 feet AGL
Weather: no significant weather observed at this time

METAR text: KGEG 200153Z 21004KT 10SM SCT009 OVC012 03/02 A3012 RMK AO2 SLP213 T00330017
Conditions at: KGEG (SPOKANE/METRO , WA, US) observed 0153 UTC 20 January 2019
Temperature: 3.3°C (38°F)
Dewpoint: 1.7°C (35°F) [RH = 89%]
Pressure (altimeter): 30.12 inches Hg (1020.1 mb)
[Sea-level pressure: 1021.3 mb]
Winds: from the SSW (210 degrees) at 5 MPH (4 knots; 2.1 m/s)
Visibility: 10 or more miles (16+ km)
Ceiling: 1200 feet AGL
Clouds: scattered clouds at 900 feet AGL
overcast cloud deck at 1200 feet AGL
Weather: no significant weather observed at this time

METAR text: KGEG 200053Z 26008KT 7SM FEW005 BKN007 OVC009 03/02 A3012 RMK AO2 SLP214 T00330017
Conditions at: KGEG (SPOKANE/METRO , WA, US) observed 0053 UTC 20 January 2019
Temperature: 3.3°C (38°F)
Dewpoint: 1.7°C (35°F) [RH = 89%]
Pressure (altimeter): 30.12 inches Hg (1020.1 mb)
[Sea-level pressure: 1021.4 mb]
Winds: from the W (260 degrees) at 9 MPH (8 knots; 4.1 m/s)
Visibility: 7 miles (11 km)
Ceiling: 700 feet AGL
Clouds: few clouds at 500 feet AGL
broken clouds at 700 feet AGL
overcast cloud deck at 900 feet AGL
Weather: no significant weather observed at this time

METAR text: KGEG 192353Z 23009KT 7SM FEW007 BKN009 OVC012 04/02 A3011 RMK AO2 SLP213 60000 T00390022 10050 20039 53015
Conditions at: KGEG (SPOKANE/METRO , WA, US) observed 2353 UTC 19 January 2019
Temperature: 3.9°C (39°F)
Dewpoint: 2.2°C (36°F) [RH = 89%]
Pressure (altimeter): 30.11 inches Hg (1019.7 mb)
[Sea-level pressure: 1021.3 mb]
Winds: from the SW (230 degrees) at 10 MPH (9 knots; 4.6 m/s)
Visibility: 7 miles (11 km)
Ceiling: 900 feet AGL
Clouds: few clouds at 700 feet AGL
broken clouds at 900 feet AGL
overcast cloud deck at 1200 feet AGL
Weather: no significant weather observed at this time

METAR text: KGEG 192253Z 25008KT 6SM BR SCT005 BKN008 OVC011 04/03 A3010 RMK AO2 SLP208 T00440028
Conditions at: KGEG (SPOKANE/METRO , WA, US) observed 2253 UTC 19 January 2019
Temperature: 4.4°C (40°F)
Dewpoint: 2.8°C (37°F) [RH = 89%]
Pressure (altimeter): 30.10 inches Hg (1019.4 mb)
[Sea-level pressure: 1020.8 mb]
Winds: from the WSW (250 degrees) at 9 MPH (8 knots; 4.1 m/s)
Visibility: 6 miles (10 km)
Ceiling: 800 feet AGL
Clouds: scattered clouds at 500 feet AGL
broken clouds at 800 feet AGL
overcast cloud deck at 1100 feet AGL
Weather: BR  (mist)

METAR text: KGEG 192220Z 23013KT 3SM BR FEW002 BKN005 OVC008 04/03 A3009 RMK AO2 SFC VIS 4 T00440028
Conditions at: KGEG (SPOKANE/METRO , WA, US) observed 2220 UTC 19 January 2019
Temperature: 4.4°C (40°F)
Dewpoint: 2.8°C (37°F) [RH = 89%]
Pressure (altimeter): 30.09 inches Hg (1019.0 mb)
Winds: from the SW (230 degrees) at 15 MPH (13 knots; 6.7 m/s)
Visibility: 3 miles ( 5 km)
Ceiling: 500 feet AGL
Clouds: few clouds at 200 feet AGL
broken clouds at 500 feet AGL
overcast cloud deck at 800 feet AGL
Weather: BR  (mist)

METAR text: KGEG 192153Z 23013KT 1SM R21/P6000FT BR SCT002 BKN004 OVC007 04/03 A3008 RMK AO2 SFC VIS 1 1/2 SLP201 T00440033
Conditions at: KGEG (SPOKANE/METRO , WA, US) observed 2153 UTC 19 January 2019
Temperature: 4.4°C (40°F)
Dewpoint: 3.3°C (38°F) [RH = 93%]
Pressure (altimeter): 30.08 inches Hg (1018.7 mb)
[Sea-level pressure: 1020.1 mb]
Winds: from the SW (230 degrees) at 15 MPH (13 knots; 6.7 m/s)
Visibility: 1.00 miles (1.61 km)
Ceiling: 400 feet AGL
Clouds: scattered clouds at 200 feet AGL
broken clouds at 400 feet AGL
overcast cloud deck at 700 feet AGL
Weather: BR  (mist)

METAR text: KGEG 192131Z 22014KT 1/4SM R21/P6000FT BR BKN002 OVC004 04/03 A3007 RMK AO2 SFC VIS 3/4 T00440033
Conditions at: KGEG (SPOKANE/METRO , WA, US) observed 2131 UTC 19 January 2019
Temperature: 4.4°C (40°F)
Dewpoint: 3.3°C (38°F) [RH = 93%]
Pressure (altimeter): 30.07 inches Hg (1018.4 mb)
Winds: from the SW (220 degrees) at 16 MPH (14 knots; 7.2 m/s)
Visibility: 0.25 miles (0.40 km)
Ceiling: 200 feet AGL
Clouds: broken clouds at 200 feet AGL
overcast cloud deck at 400 feet AGL
Weather: BR  (mist)

METAR text: KGEG 192122Z 22013KT 1/2SM R21/P6000FT BR SCT002 OVC004 04/03 A3007 RMK AO2 SFC VIS 1 VIS NW 1 1/2 T00390028
Conditions at: KGEG (SPOKANE/METRO , WA, US) observed 2122 UTC 19 January 2019
Temperature: 3.9°C (39°F)
Dewpoint: 2.8°C (37°F) [RH = 93%]
Pressure (altimeter): 30.07 inches Hg (1018.4 mb)
Winds: from the SW (220 degrees) at 15 MPH (13 knots; 6.7 m/s)
Visibility: 0.50 miles (0.80 km)
Ceiling: 400 feet AGL
Clouds: scattered clouds at 200 feet AGL
overcast cloud deck at 400 feet AGL
Weather: BR  (mist)

METAR text: KGEG 192053Z 22013KT 1SM R21/P6000FT BR SCT002 BKN004 OVC006 04/03 A3007 RMK AO2 SFC VIS 2 DZB20E50 SLP196 P0000 60000 T00440028 50005
Conditions at: KGEG (SPOKANE/METRO , WA, US) observed 2053 UTC 19 January 2019
Temperature: 4.4°C (40°F)
Dewpoint: 2.8°C (37°F) [RH = 89%]
Pressure (altimeter): 30.07 inches Hg (1018.4 mb)
[Sea-level pressure: 1019.6 mb]
Winds: from the SW (220 degrees) at 15 MPH (13 knots; 6.7 m/s)
Visibility: 1.00 miles (1.61 km)
Ceiling: 400 feet AGL
Clouds: scattered clouds at 200 feet AGL
broken clouds at 400 feet AGL
overcast cloud deck at 600 feet AGL
Weather: BR  (mist)

METAR text: KGEG 191953Z 23011KT 1/4SM R21/P6000FT BR BKN002 OVC004 04/03 A3008 RMK AO2 SFC VIS 1 SLP200 VIS S-SW 3/4 W-NW 1 1/2 T00440033
Conditions at: KGEG (SPOKANE/METRO , WA, US) observed 1953 UTC 19 January 2019
Temperature: 4.4°C (40°F)
Dewpoint: 3.3°C (38°F) [RH = 93%]
Pressure (altimeter): 30.08 inches Hg (1018.7 mb)
[Sea-level pressure: 1020.0 mb]
Winds: from the SW (230 degrees) at 13 MPH (11 knots; 5.7 m/s)
Visibility: 0.25 miles (0.40 km)
Ceiling: 200 feet AGL
Clouds: broken clouds at 200 feet AGL
overcast cloud deck at 400 feet AGL
Weather: BR  (mist)

METAR text: KGEG 191853Z 22012KT 1/4SM R21/P6000FT BR SCT002 OVC004 04/03 A3006 RMK AO2 SFC VIS 1 1/2 SLP194 VIS SE-SW 3/4 T00440033
Conditions at: KGEG (SPOKANE/METRO , WA, US) observed 1853 UTC 19 January 2019
Temperature: 4.4°C (40°F)
Dewpoint: 3.3°C (38°F) [RH = 93%]
Pressure (altimeter): 30.06 inches Hg (1018.0 mb)
[Sea-level pressure: 1019.4 mb]
Winds: from the SW (220 degrees) at 14 MPH (12 knots; 6.2 m/s)
Visibility: 0.25 miles (0.40 km)
Ceiling: 400 feet AGL
Clouds: scattered clouds at 200 feet AGL
overcast cloud deck at 400 feet AGL
Weather: BR  (mist)

METAR text: KGEG 191847Z 22012KT 1/4SM R21/P6000FT BR SCT002 OVC004 04/03 A3006 RMK AO2 SFC VIS 1 1/2 VIS SE-SW 3/4
Conditions at: KGEG (SPOKANE/METRO , WA, US) observed 1847 UTC 19 January 2019
Temperature: 4.0°C (39°F)
Dewpoint: 3.0°C (37°F) [RH = 93%]
Pressure (altimeter): 30.06 inches Hg (1018.0 mb)
Winds: from the SW (220 degrees) at 14 MPH (12 knots; 6.2 m/s)
Visibility: 0.25 miles (0.40 km)
Ceiling: 400 feet AGL
Clouds: scattered clouds at 200 feet AGL
overcast cloud deck at 400 feet AGL
Weather: BR  (mist)

METAR text: KGEG 191821Z 21015KT 1SM R21/P6000FT BR FEW002 BKN004 OVC005 04/03 A3005 RMK AO2 SFC VIS 5 T00440033
Conditions at: KGEG (SPOKANE/METRO , WA, US) observed 1821 UTC 19 January 2019
Temperature: 4.4°C (40°F)
Dewpoint: 3.3°C (38°F) [RH = 93%]
Pressure (altimeter): 30.05 inches Hg (1017.7 mb)
Winds: from the SSW (210 degrees) at 17 MPH (15 knots; 7.7 m/s)
Visibility: 1.00 miles (1.61 km)
Ceiling: 400 feet AGL
Clouds: few clouds at 200 feet AGL
broken clouds at 400 feet AGL
overcast cloud deck at 500 feet AGL
Weather: BR  (mist)

METAR text: KGEG 191753Z 22012KT 6SM BR FEW002 SCT004 OVC005 05/03 A3005 RMK AO2 SLP190 60005 T00500033 10050 20017 53016
Conditions at: KGEG (SPOKANE/METRO , WA, US) observed 1753 UTC 19 January 2019
Temperature: 5.0°C (41°F)
Dewpoint: 3.3°C (38°F) [RH = 89%]
Pressure (altimeter): 30.05 inches Hg (1017.7 mb)
[Sea-level pressure: 1019.0 mb]
Winds: from the SW (220 degrees) at 14 MPH (12 knots; 6.2 m/s)
Visibility: 6 miles (10 km)
Ceiling: 500 feet AGL
Clouds: few clouds at 200 feet AGL
scattered clouds at 400 feet AGL
overcast cloud deck at 500 feet AGL
Weather: BR  (mist)

METAR text: KGEG 191653Z 20013KT 7SM FEW002 SCT005 OVC008 05/03 A3003 RMK AO2 SLP183 T00500033
Conditions at: KGEG (SPOKANE/METRO , WA, US) observed 1653 UTC 19 January 2019
Temperature: 5.0°C (41°F)
Dewpoint: 3.3°C (38°F) [RH = 89%]
Pressure (altimeter): 30.03 inches Hg (1017.0 mb)
[Sea-level pressure: 1018.3 mb]
Winds: from the SSW (200 degrees) at 15 MPH (13 knots; 6.7 m/s)
Visibility: 7 miles (11 km)
Ceiling: 800 feet AGL
Clouds: few clouds at 200 feet AGL
scattered clouds at 500 feet AGL
overcast cloud deck at 800 feet AGL
Weather: no significant weather observed at this time

METAR text: KGEG 191607Z 19013KT 3SM BR FEW004 OVC012 04/03 A3001 RMK AO2 SFC VIS 5 T00390028
Conditions at: KGEG (SPOKANE/METRO , WA, US) observed 1607 UTC 19 January 2019
Temperature: 3.9°C (39°F)
Dewpoint: 2.8°C (37°F) [RH = 93%]
Pressure (altimeter): 30.01 inches Hg (1016.3 mb)
Winds: from the S (190 degrees) at 15 MPH (13 knots; 6.7 m/s)
Visibility: 3 miles ( 5 km)
Ceiling: 1200 feet AGL
Clouds: few clouds at 400 feet AGL
overcast cloud deck at 1200 feet AGL
Weather: BR  (mist)

METAR text: KGEG 191553Z 19012KT 2SM BR FEW004 SCT007 OVC012 04/02 A3000 RMK AO2 SFC VIS 5 DZE42SNE32 SLP174 P0001 T00390022
Conditions at: KGEG (SPOKANE/METRO , WA, US) observed 1553 UTC 19 January 2019
Temperature: 3.9°C (39°F)
Dewpoint: 2.2°C (36°F) [RH = 89%]
Pressure (altimeter): 30.00 inches Hg (1016.0 mb)
[Sea-level pressure: 1017.4 mb]
Winds: from the S (190 degrees) at 14 MPH (12 knots; 6.2 m/s)
Visibility: 2.00 miles (3.22 km)
Ceiling: 1200 feet AGL
Clouds: few clouds at 400 feet AGL
scattered clouds at 700 feet AGL
overcast cloud deck at 1200 feet AGL
Weather: BR  (mist)

METAR text: KGEG 191542Z 18012KT 1 1/2SM BR SCT004 BKN007 OVC012 03/02 A3000 RMK AO2 SFC VIS 3 DZE42SNE32 P0001 T00330022
Conditions at: KGEG (SPOKANE/METRO , WA, US) observed 1542 UTC 19 January 2019
Temperature: 3.3°C (38°F)
Dewpoint: 2.2°C (36°F) [RH = 92%]
Pressure (altimeter): 30.00 inches Hg (1016.0 mb)
Winds: from the S (180 degrees) at 14 MPH (12 knots; 6.2 m/s)
Visibility: 1.50 miles (2.41 km)
Ceiling: 700 feet AGL
Clouds: scattered clouds at 400 feet AGL
broken clouds at 700 feet AGL
overcast cloud deck at 1200 feet AGL
Weather: BR  (mist)

METAR text: KGEG 191453Z 17009KT 1 1/2SM -DZSN BR BKN004 OVC015 03/02 A3000 RMK AO2 SFC VIS 3 SNE35B53 SLP174 P0001 60004 T00280017 56003
Conditions at: KGEG (SPOKANE/METRO , WA, US) observed 1453 UTC 19 January 2019
Temperature: 2.8°C (37°F)
Dewpoint: 1.7°C (35°F) [RH = 92%]
Pressure (altimeter): 30.00 inches Hg (1016.0 mb)
[Sea-level pressure: 1017.4 mb]
Winds: from the S (170 degrees) at 10 MPH (9 knots; 4.6 m/s)
Visibility: 1.50 miles (2.41 km)
Ceiling: 400 feet AGL
Clouds: broken clouds at 400 feet AGL
overcast cloud deck at 1500 feet AGL
Weather: -DZ -SN BR  (light drizzle, light snow, mist)

METAR text: KGEG 191436Z 16009KT 2 1/2SM -DZ BR BKN004 OVC015 03/02 A2999 RMK AO2 SNE35 P0001 T00280017
Conditions at: KGEG (SPOKANE/METRO , WA, US) observed 1436 UTC 19 January 2019
Temperature: 2.8°C (37°F)
Dewpoint: 1.7°C (35°F) [RH = 92%]
Pressure (altimeter): 29.99 inches Hg (1015.7 mb)
Winds: from the SSE (160 degrees) at 10 MPH (9 knots; 4.6 m/s)
Visibility: 2.50 miles (4.02 km)
Ceiling: 400 feet AGL
Clouds: broken clouds at 400 feet AGL
overcast cloud deck at 1500 feet AGL
Weather: -DZ BR  (light drizzle, mist)

METAR text: KGEG 191353Z 16010KT 1 1/2SM -DZSN BR FEW001 OVC004 03/01 A3000 RMK AO2 TWR VIS 2 SLP174 P0001 T00280011
Conditions at: KGEG (SPOKANE/METRO , WA, US) observed 1353 UTC 19 January 2019
Temperature: 2.8°C (37°F)
Dewpoint: 1.1°C (34°F) [RH = 89%]
Pressure (altimeter): 30.00 inches Hg (1016.0 mb)
[Sea-level pressure: 1017.4 mb]
Winds: from the SSE (160 degrees) at 12 MPH (10 knots; 5.1 m/s)
Visibility: 1.50 miles (2.41 km)
Ceiling: 400 feet AGL
Clouds: few clouds at 100 feet AGL
overcast cloud deck at 400 feet AGL
Weather: -DZ -SN BR  (light drizzle, light snow, mist)

METAR text: KGEG 191317Z 15011KT 2SM -DZSN BR BKN006 OVC016 03/01 A2999 RMK AO2 SFC VIS 2 1/2 CIG 004V008 P0001 T00280011
Conditions at: KGEG (SPOKANE/METRO , WA, US) observed 1317 UTC 19 January 2019
Temperature: 2.8°C (37°F)
Dewpoint: 1.1°C (34°F) [RH = 89%]
Pressure (altimeter): 29.99 inches Hg (1015.7 mb)
Winds: from the SSE (150 degrees) at 13 MPH (11 knots; 5.7 m/s)
Visibility: 2.00 miles (3.22 km)
Ceiling: 600 feet AGL
Clouds: broken clouds at 600 feet AGL
overcast cloud deck at 1600 feet AGL
Weather: -DZ -SN BR  (light drizzle, light snow, mist)

METAR text: KGEG 191253Z 15012KT 2SM -DZSN BR SCT005 OVC019 02/01 A3000 RMK AO2 SFC VIS 3 SLP172 P0002 T00220011
Conditions at: KGEG (SPOKANE/METRO , WA, US) observed 1253 UTC 19 January 2019
Temperature: 2.2°C (36°F)
Dewpoint: 1.1°C (34°F) [RH = 92%]
Pressure (altimeter): 30.00 inches Hg (1016.0 mb)
[Sea-level pressure: 1017.2 mb]
Winds: from the SSE (150 degrees) at 14 MPH (12 knots; 6.2 m/s)
Visibility: 2.00 miles (3.22 km)
Ceiling: 1900 feet AGL
Clouds: scattered clouds at 500 feet AGL
overcast cloud deck at 1900 feet AGL
Weather: -DZ -SN BR  (light drizzle, light snow, mist)

METAR text: KGEG 191153Z 13006KT 2SM -SNDZ BR BKN007 OVC015 01/01 A3001 RMK AO2 RAE46DZB46SNB48 SLP178 CIG 005V009 P0002 60012 70012 T00110006 10028 20006 56020
Conditions at: KGEG (SPOKANE/METRO , WA, US) observed 1153 UTC 19 January 2019
Temperature: 1.1°C (34°F)
Dewpoint: 0.6°C (33°F) [RH = 96%]
Pressure (altimeter): 30.01 inches Hg (1016.3 mb)
[Sea-level pressure: 1017.8 mb]
Winds: from the SE (130 degrees) at 7 MPH (6 knots; 3.1 m/s)
Visibility: 2.00 miles (3.22 km)
Ceiling: 700 feet AGL
Clouds: broken clouds at 700 feet AGL
overcast cloud deck at 1500 feet AGL
Weather: -SN -DZ BR  (light snow, light drizzle, mist)

Forecast for: KGEG (SPOKANE/METRO , WA, US)
Text: KGEG 202338Z 2100/2124 36008KT P6SM -RASN SCT012 BKN060 OVC080
Forecast period: 0000 to 0400 UTC 21 January 2019
Forecast type: FROM: standard forecast or significant change
Winds: from the N (360 degrees) at 9 MPH (8 knots; 4.1 m/s)
Visibility: 6 or more miles 10+ km)
Ceiling: 6000 feet AGL
Clouds: scattered clouds at 1200 feet AGL
broken clouds at 6000 feet AGL
overcast cloud deck at 8000 feet AGL
Weather: -RA -SN  (light rain, light snow)
Text: TEMPO 2100/2104 -RASN BKN012
Forecast period: 0000 to 0400 UTC 21 January 2019
Forecast type: TEMPORARY: The following changes expected for less than half the time period
Visibility: missing
Ceiling: 1200 feet AGL
Clouds: broken clouds at 1200 feet AGL
Weather: -RA -SN  (light rain, light snow)
Text: FM210400 31006KT P6SM SCT010 BKN060
Forecast period: 0400 to 0700 UTC 21 January 2019
Forecast type: FROM: standard forecast or significant change
Winds: from the NW (310 degrees) at 7 MPH (6 knots; 3.1 m/s)
Visibility: 6 or more miles 10+ km)
Ceiling: 6000 feet AGL
Clouds: scattered clouds at 1000 feet AGL
broken clouds at 6000 feet AGL
Weather: no significant weather forecast for this period
Text: FM210700 24005KT 1/2SM FZFG OVC002
Forecast period: 0700 to 1800 UTC 21 January 2019
Forecast type: FROM: standard forecast or significant change
Winds: from the WSW (240 degrees) at 6 MPH (5 knots; 2.6 m/s)
Visibility: 0.50 miles (0.80 km)
Ceiling: 200 feet AGL
Clouds: overcast cloud deck at 200 feet AGL
Weather: FZFG  (freezing fog)
Text: FM211800 29005KT 2SM BR BKN010
Forecast period: 1800 to 2100 UTC 21 January 2019
Forecast type: FROM: standard forecast or significant change
Winds: from the WNW (290 degrees) at 6 MPH (5 knots; 2.6 m/s)
Visibility: 2.00 miles (3.22 km)
Ceiling: 1000 feet AGL
Clouds: broken clouds at 1000 feet AGL
Weather: BR  (mist)
Text: FM212100 28006KT P6SM SCT020
Forecast period: 2100 UTC 21 January 2019 to 0000 UTC 22 January 2019
Forecast type: FROM: standard forecast or significant change
Winds: from the W (280 degrees) at 7 MPH (6 knots; 3.1 m/s)
Visibility: 6 or more miles 10+ km)
Ceiling: at least 12,000 feet AGL
Clouds: scattered clouds at 2000 feet AGL
Weather: no significant weather forecast for this period